Perkins, Oklahoma
Current Conditions -  °F | °C
As of 2:53 PM on Tuesday 27 Jan 2015 (Local Time) from KSWO Reporting Station
Clear Clear  
Wind Chill: 77°   Ceiling: Unl
Heat Index: 77°   Visibility: 10mi
Dew Point: 34°   Wind: 9mph
Humidity: 21%   Direction: 220°SW
Pressure: 30.06"   Gusts: NA
Location:  35.97°N, 97.03°W
Report Text: KSWO 272053Z 22008KT 10SM CLR 25/01 A3006 RMK AO2 SLP174 T02500011 56030
Loading
Personal Weather Stations






























Interactive Weather Map New forecast layout! Learn more

10-Day Weather Forecast

Advertisements
Track Severe Weather on mobile